Terminal Aerodrome Forecast
Issued by NWS

Home | Current Version | Previous Version | Text Only | Print | Product List | Glossary On
Versions: 1 2 3 4 5 6 7 8 9 10 11 12 13 14 15 16 17 18 19 20 21 22 23 24
000
FTUS41 KCTP 161419 AAA
TAFAOO
TAF AMD
KAOO 161419Z 1614/1712 00000KT P6SM OVC035
     FM161500 18004KT 2SM -SN BR OVC025
     FM161700 19004KT 3/4SM -SN BR OVC015
     FM170200 27004KT 2SM -SN BR OVC015
     FM170500 30004KT 5SM -SHSN BR OVC025=

USA.gov is the U.S. government's official web portal to all federal, state and local government web resources and services.